Time;durP1;ratioP1;P1;durP2;ratioP2;P2;SDS_P1;SDS_P2;PMS_P1;PMS_P2;Temp;Humidity;BMP_temperature;BMP_pressure;BME280_temperature;BME280_humidity;BME280_pressure;Samples;Min_cycle;Max_cycle;Signal;HPM_P1;HPM_P2
2023/07/19 00:02:09;;;;;;;8.43;3.80;;;22.20;57.90;;;;;;5039587;28;20035;-62
2023/07/19 00:04:35;;;;;;;5.68;3.20;;;22.20;58.30;;;;;;5036866;28;20056;-62
2023/07/19 00:07:01;;;;;;;6.38;3.65;;;22.10;58.60;;;;;;5040613;28;20025;-63
2023/07/19 00:09:27;;;;;;;5.30;3.30;;;22.10;58.70;;;;;;5044031;28;20029;-62
2023/07/19 00:11:52;;;;;;;6.03;3.13;;;22.10;58.80;;;;;;5039758;28;20033;-62
2023/07/19 00:14:18;;;;;;;10.90;3.75;;;22.10;58.70;;;;;;5040021;28;20116;-63
2023/07/19 00:16:44;;;;;;;13.30;3.83;;;22.00;58.50;;;;;;5045059;28;20064;-62
2023/07/19 00:19:10;;;;;;;7.72;4.03;;;22.00;58.50;;;;;;5044693;28;20116;-61
2023/07/19 00:21:35;;;;;;;5.15;3.70;;;21.90;58.60;;;;;;5041231;28;20036;-62
2023/07/19 00:24:01;;;;;;;7.13;3.75;;;21.90;58.60;;;;;;5037653;28;20071;-62
2023/07/19 00:26:27;;;;;;;6.63;3.60;;;21.90;58.70;;;;;;5042036;28;20025;-62
2023/07/19 00:28:53;;;;;;;9.63;3.30;;;21.80;58.80;;;;;;5045775;28;20487;-62
2023/07/19 00:31:18;;;;;;;8.80;3.90;;;21.80;59.00;;;;;;5042037;28;20072;-61
2023/07/19 00:33:44;;;;;;;8.20;3.63;;;21.80;59.00;;;;;;5037876;28;20041;-62
2023/07/19 00:36:10;;;;;;;5.95;3.10;;;21.70;59.00;;;;;;5043759;28;20029;-61
2023/07/19 00:38:35;;;;;;;6.35;3.35;;;21.70;59.00;;;;;;5046189;28;20036;-62
2023/07/19 00:41:01;;;;;;;5.10;3.17;;;21.70;59.00;;;;;;4938315;28;20344;-63
2023/07/19 00:43:27;;;;;;;6.03;3.42;;;21.70;59.10;;;;;;5032775;28;20025;-63
2023/07/19 00:45:54;;;;;;;6.90;3.88;;;21.60;59.20;;;;;;5043495;28;20510;-62
2023/07/19 00:48:20;;;;;;;6.40;3.45;;;21.60;59.30;;;;;;5041477;28;20079;-62
2023/07/19 00:50:48;;;;;;;7.22;3.70;;;21.50;59.70;;;;;;5045426;28;20051;-62
2023/07/19 00:53:14;;;;;;;6.20;3.50;;;21.50;60.30;;;;;;5040836;28;20070;-61
2023/07/19 00:55:40;;;;;;;6.35;3.70;;;21.50;60.50;;;;;;5043232;28;20045;-61
2023/07/19 00:58:07;;;;;;;6.50;3.00;;;21.50;60.80;;;;;;5041692;28;20481;-62
2023/07/19 01:00:32;;;;;;;7.18;3.80;;;21.40;60.90;;;;;;5052098;28;20032;-62
2023/07/19 01:02:59;;;;;;;8.63;3.88;;;21.40;61.00;;;;;;5045283;28;20069;-62
2023/07/19 01:05:26;;;;;;;8.20;3.20;;;21.40;61.30;;;;;;5041268;28;20037;-62
2023/07/19 01:07:53;;;;;;;5.68;3.63;;;21.30;61.40;;;;;;5033316;28;20029;-62
2023/07/19 01:10:19;;;;;;;8.50;3.67;;;21.30;61.10;;;;;;5033034;28;20036;-62
2023/07/19 01:13:11;;;;;;;5.35;3.40;;;21.30;60.90;;;;;;5039163;28;20111;-62
2023/07/19 01:15:38;;;;;;;7.80;3.38;;;21.30;61.50;;;;;;5035638;28;20128;-62
2023/07/19 01:18:04;;;;;;;7.18;3.50;;;21.20;60.80;;;;;;5039552;28;20099;-62
2023/07/19 01:20:30;;;;;;;7.65;4.13;;;21.20;61.00;;;;;;5041177;28;20041;-63
2023/07/19 01:22:56;;;;;;;8.70;3.70;;;21.20;61.60;;;;;;5042441;28;20037;-62
2023/07/19 01:25:23;;;;;;;8.65;4.03;;;21.20;61.70;;;;;;5032839;28;20080;-63
2023/07/19 01:27:49;;;;;;;6.45;3.83;;;21.20;61.50;;;;;;5043568;28;20025;-62
2023/07/19 01:30:14;;;;;;;9.90;4.07;;;21.10;61.50;;;;;;5042101;28;20032;-61
2023/07/19 01:32:40;;;;;;;5.25;3.42;;;21.10;61.50;;;;;;5040058;28;20037;-61
2023/07/19 01:35:06;;;;;;;5.53;3.20;;;21.10;61.60;;;;;;5046495;28;20028;-61
2023/07/19 01:37:32;;;;;;;9.48;4.28;;;21.10;61.80;;;;;;5038630;28;20106;-62
2023/07/19 01:40:00;;;;;;;6.70;4.38;;;21.10;61.80;;;;;;4972846;28;20076;-61
2023/07/19 01:42:26;;;;;;;7.25;4.20;;;21.20;61.90;;;;;;5047864;28;20055;-61
2023/07/19 01:44:53;;;;;;;7.57;3.85;;;21.10;61.80;;;;;;5044324;28;20476;-62
2023/07/19 01:47:19;;;;;;;8.70;3.75;;;21.20;62.30;;;;;;5039485;28;20025;-62
2023/07/19 01:49:44;;;;;;;6.13;3.80;;;21.20;61.50;;;;;;5044099;28;20029;-62
2023/07/19 01:52:10;;;;;;;8.02;3.80;;;21.20;61.50;;;;;;5048055;28;20079;-61
2023/07/19 01:54:36;;;;;;;6.57;3.85;;;21.10;61.50;;;;;;5046787;28;20475;-62
2023/07/19 01:57:02;;;;;;;8.10;3.58;;;21.10;61.70;;;;;;5044329;28;20110;-62
2023/07/19 01:59:28;;;;;;;7.30;4.05;;;21.10;61.90;;;;;;5044088;28;20491;-62
2023/07/19 02:01:54;;;;;;;5.20;3.97;;;21.10;62.10;;;;;;5023574;28;20038;-62
2023/07/19 02:04:19;;;;;;;5.15;3.55;;;21.10;62.20;;;;;;5046516;28;20051;-61
2023/07/19 02:06:46;;;;;;;10.23;4.38;;;21.10;62.20;;;;;;5040654;28;20076;-63
2023/07/19 02:09:11;;;;;;;5.60;3.47;;;21.10;62.70;;;;;;5044121;28;20025;-63
2023/07/19 02:11:37;;;;;;;5.75;3.25;;;21.20;62.80;;;;;;5047181;28;20318;-61
2023/07/19 02:14:03;;;;;;;7.43;3.40;;;21.20;62.70;;;;;;5036140;28;20048;-62
2023/07/19 02:16:29;;;;;;;6.70;3.70;;;21.20;62.90;;;;;;5046578;28;20041;-61
2023/07/19 02:18:55;;;;;;;15.70;4.10;;;21.20;62.90;;;;;;5041343;28;20028;-62
2023/07/19 02:21:20;;;;;;;6.45;3.72;;;21.20;63.00;;;;;;5039700;28;20032;-62
2023/07/19 02:23:46;;;;;;;7.28;3.70;;;21.20;63.00;;;;;;5046973;28;20078;-62
2023/07/19 02:26:11;;;;;;;6.78;3.85;;;21.20;63.00;;;;;;5047690;28;20055;-62
2023/07/19 02:28:37;;;;;;;6.30;3.47;;;21.20;63.10;;;;;;5046757;28;20064;-60
2023/07/19 02:31:03;;;;;;;7.03;3.55;;;21.20;62.90;;;;;;5019341;28;20036;-62
2023/07/19 02:33:29;;;;;;;7.05;3.55;;;21.20;63.00;;;;;;5042356;28;20055;-62
2023/07/19 02:35:55;;;;;;;6.10;3.38;;;21.20;63.00;;;;;;5047322;28;20029;-62
2023/07/19 02:38:22;;;;;;;5.63;3.45;;;21.20;63.00;;;;;;5044405;28;20028;-61
2023/07/19 02:40:48;;;;;;;6.20;3.80;;;21.20;63.10;;;;;;5042293;28;20033;-61
2023/07/19 02:43:14;;;;;;;6.07;3.67;;;21.20;63.30;;;;;;5045793;28;20496;-61
2023/07/19 02:45:39;;;;;;;6.35;3.60;;;21.20;63.20;;;;;;5043745;28;20025;-62
2023/07/19 02:48:05;;;;;;;8.55;3.90;;;21.20;63.30;;;;;;5021879;28;20505;-62
2023/07/19 02:50:31;;;;;;;5.50;3.38;;;21.20;63.40;;;;;;5038660;28;20444;-62
2023/07/19 02:52:57;;;;;;;5.78;3.38;;;21.20;63.50;;;;;;5039145;28;20037;-61
2023/07/19 02:55:23;;;;;;;6.82;3.50;;;21.20;63.60;;;;;;5042525;28;20055;-63
2023/07/19 02:57:49;;;;;;;8.60;3.30;;;21.20;63.50;;;;;;5045564;28;20029;-63
2023/07/19 03:00:15;;;;;;;9.25;3.63;;;21.20;63.70;;;;;;5042724;28;20040;-62
2023/07/19 03:02:40;;;;;;;11.10;3.72;;;21.20;63.70;;;;;;5038762;28;20029;-62
2023/07/19 03:05:06;;;;;;;8.80;4.22;;;21.20;63.70;;;;;;5042463;28;20403;-61
2023/07/19 03:07:32;;;;;;;6.43;3.70;;;21.20;63.90;;;;;;5045699;28;20079;-62
2023/07/19 03:09:58;;;;;;;5.88;3.50;;;21.20;63.90;;;;;;5041583;28;20040;-61
2023/07/19 03:12:24;;;;;;;8.00;3.70;;;21.20;63.80;;;;;;5039698;28;20033;-61
2023/07/19 03:14:50;;;;;;;6.32;3.42;;;21.30;64.00;;;;;;5042930;28;20035;-63
2023/07/19 03:17:15;;;;;;;5.57;3.22;;;21.30;64.00;;;;;;5037881;28;20029;-63
2023/07/19 03:19:41;;;;;;;6.82;3.28;;;21.30;64.00;;;;;;5045066;28;20079;-62
2023/07/19 03:22:06;;;;;;;8.00;3.22;;;21.30;64.80;;;;;;5039625;28;20386;-61
2023/07/19 03:24:33;;;;;;;8.20;3.78;;;21.30;64.30;;;;;;5041072;28;20570;-61
2023/07/19 03:26:59;;;;;;;8.77;3.40;;;21.20;64.30;;;;;;5042565;28;20105;-62
2023/07/19 03:29:24;;;;;;;5.80;3.58;;;21.20;64.30;;;;;;5034032;28;20056;-62
2023/07/19 03:31:50;;;;;;;7.70;3.63;;;21.20;64.50;;;;;;5038812;28;20471;-62
2023/07/19 03:34:15;;;;;;;6.60;3.53;;;21.20;64.80;;;;;;5024138;28;20041;-62
2023/07/19 03:36:41;;;;;;;5.68;3.42;;;21.20;64.60;;;;;;5042470;28;20033;-61
2023/07/19 03:39:10;;;;;;;6.15;3.40;;;21.20;64.60;;;;;;4978232;28;20037;-60
2023/07/19 03:41:35;;;;;;;7.63;3.15;;;21.20;64.90;;;;;;5031409;28;20033;-62
2023/07/19 03:44:01;;;;;;;8.57;3.88;;;21.20;64.60;;;;;;5039200;28;20030;-61
2023/07/19 03:46:26;;;;;;;6.85;3.58;;;21.10;64.60;;;;;;5041424;28;20856;-61
2023/07/19 03:48:52;;;;;;;6.18;3.42;;;21.10;64.70;;;;;;5043657;28;20116;-61
2023/07/19 03:51:19;;;;;;;5.22;3.63;;;21.10;64.80;;;;;;5044104;28;20029;-61
2023/07/19 03:53:44;;;;;;;17.92;4.00;;;21.10;65.00;;;;;;5038367;28;20045;-60
2023/07/19 03:56:10;;;;;;;5.63;3.22;;;21.10;65.10;;;;;;5040958;28;20132;-62
2023/07/19 03:58:39;;;;;;;6.45;3.40;;;21.00;65.00;;;;;;5045969;28;20057;-62
2023/07/19 04:01:04;;;;;;;7.53;4.72;;;21.00;65.10;;;;;;5046853;28;20021;-61
2023/07/19 04:03:30;;;;;;;9.48;5.45;;;21.10;65.20;;;;;;5050090;28;20032;-61
2023/07/19 04:05:57;;;;;;;7.07;4.43;;;21.00;65.00;;;;;;5039898;28;20033;-61
2023/07/19 04:08:23;;;;;;;6.65;4.53;;;21.00;65.00;;;;;;5042192;28;20025;-61
2023/07/19 04:10:48;;;;;;;7.90;4.07;;;21.00;65.10;;;;;;5042052;28;20450;-62
2023/07/19 04:13:14;;;;;;;5.28;3.50;;;21.00;65.00;;;;;;5045590;28;20399;-63
2023/07/19 04:15:40;;;;;;;3.40;2.63;;;21.00;65.10;;;;;;5042906;28;20114;-63
2023/07/19 04:18:06;;;;;;;7.95;3.17;;;21.00;65.10;;;;;;5042737;28;20068;-62
2023/07/19 04:20:32;;;;;;;3.95;2.83;;;21.00;65.10;;;;;;5039559;28;20021;-62
2023/07/19 04:22:58;;;;;;;5.63;3.20;;;21.00;65.10;;;;;;5040178;28;20025;-61
2023/07/19 04:25:24;;;;;;;6.15;3.15;;;21.00;65.10;;;;;;5041617;28;20021;-62
2023/07/19 04:27:51;;;;;;;5.32;3.80;;;21.00;65.10;;;;;;5037239;28;20394;-61
2023/07/19 04:30:16;;;;;;;7.65;3.25;;;21.00;65.10;;;;;;5042029;28;20037;-61
2023/07/19 04:32:42;;;;;;;6.88;3.05;;;21.00;65.30;;;;;;5044617;28;20506;-62
2023/07/19 04:35:09;;;;;;;7.05;3.33;;;21.00;65.30;;;;;;5044619;28;20368;-62
2023/07/19 04:37:35;;;;;;;5.05;3.30;;;21.00;65.40;;;;;;5044223;28;20078;-62
2023/07/19 04:40:01;;;;;;;5.40;3.58;;;21.10;65.40;;;;;;5039752;28;20296;-62
2023/07/19 04:42:28;;;;;;;5.55;3.30;;;21.10;65.40;;;;;;5042392;28;20108;-62
2023/07/19 04:44:54;;;;;;;7.00;3.63;;;21.10;65.20;;;;;;5046856;28;20424;-62
2023/07/19 04:47:20;;;;;;;5.53;3.22;;;21.10;65.30;;;;;;5043199;28;20064;-62
2023/07/19 04:49:45;;;;;;;8.23;3.50;;;21.10;65.30;;;;;;5040944;28;20108;-61
2023/07/19 04:52:11;;;;;;;5.53;3.05;;;21.10;66.10;;;;;;5020690;28;20116;-62
2023/07/19 04:54:37;;;;;;;5.10;3.47;;;21.10;65.40;;;;;;5018944;28;20032;-62
2023/07/19 04:57:03;;;;;;;5.20;3.33;;;21.20;65.10;;;;;;5042712;28;20048;-63
2023/07/19 04:59:28;;;;;;;6.20;3.25;;;21.20;64.70;;;;;;5027242;28;20021;-62
2023/07/19 05:01:54;;;;;;;5.68;3.58;;;21.20;64.20;;;;;;5038562;28;20400;-62
2023/07/19 05:04:20;;;;;;;7.68;3.65;;;21.40;63.80;;;;;;5027564;28;20369;-62
2023/07/19 05:06:46;;;;;;;6.40;3.28;;;21.40;63.60;;;;;;5039647;28;20486;-63
2023/07/19 05:09:12;;;;;;;6.07;3.53;;;21.50;63.60;;;;;;5036320;28;20036;-63
2023/07/19 05:11:39;;;;;;;4.25;2.83;;;21.60;63.10;;;;;;5038044;28;20022;-62
2023/07/19 05:14:05;;;;;;;8.00;3.63;;;21.70;62.90;;;;;;5049242;28;20036;-61
2023/07/19 05:16:32;;;;;;;7.10;3.67;;;21.80;62.70;;;;;;5045952;28;20021;-64
2023/07/19 05:18:58;;;;;;;7.65;3.53;;;21.90;62.20;;;;;;5048936;28;20029;-61
2023/07/19 05:21:24;;;;;;;9.20;3.55;;;22.00;62.00;;;;;;5048880;28;20608;-61
2023/07/19 05:23:49;;;;;;;5.38;3.22;;;22.10;61.80;;;;;;5047080;28;20024;-63
2023/07/19 05:26:15;;;;;;;5.97;3.42;;;22.20;61.60;;;;;;5042131;28;20021;-60
2023/07/19 05:28:41;;;;;;;6.50;3.15;;;22.20;61.40;;;;;;5043572;28;20047;-60
2023/07/19 05:31:08;;;;;;;5.85;3.30;;;22.40;61.20;;;;;;5048320;28;20150;-61
2023/07/19 05:33:34;;;;;;;10.05;3.70;;;22.40;61.00;;;;;;5041973;28;20033;-62
2023/07/19 05:36:00;;;;;;;7.30;3.30;;;22.60;60.70;;;;;;5038257;28;20396;-60
2023/07/19 05:38:26;;;;;;;5.40;3.13;;;22.70;60.50;;;;;;5043568;28;20025;-62
2023/07/19 05:40:52;;;;;;;5.63;3.50;;;22.80;60.10;;;;;;5048368;28;20032;-61
2023/07/19 05:43:18;;;;;;;4.78;3.05;;;22.90;59.80;;;;;;5042969;28;20033;-61
2023/07/19 05:45:44;;;;;;;6.30;3.65;;;22.90;59.60;;;;;;5042963;28;20025;-62
2023/07/19 05:48:10;;;;;;;4.72;3.08;;;23.10;59.40;;;;;;5037646;28;20067;-62
2023/07/19 05:50:37;;;;;;;4.60;3.10;;;23.10;59.30;;;;;;5044450;28;20037;-62
2023/07/19 05:53:03;;;;;;;6.18;3.03;;;23.20;59.10;;;;;;5043844;28;20183;-62
2023/07/19 05:55:28;;;;;;;5.95;3.10;;;23.30;58.90;;;;;;5023767;28;20488;-62
2023/07/19 05:57:54;;;;;;;7.93;2.85;;;23.40;58.80;;;;;;5019209;28;20037;-62
2023/07/19 06:00:28;;;;;;;6.45;3.30;;;23.50;58.80;;;;;;5041002;28;20040;-62
2023/07/19 06:02:54;;;;;;;5.22;2.88;;;23.60;58.50;;;;;;5045686;28;20037;-62
2023/07/19 06:05:20;;;;;;;9.70;4.07;;;23.70;57.90;;;;;;5042551;28;20108;-62
2023/07/19 06:07:47;;;;;;;5.97;2.92;;;23.90;57.20;;;;;;5041982;28;20112;-62
2023/07/19 06:10:13;;;;;;;6.18;2.90;;;23.90;57.00;;;;;;5045458;28;20062;-61
2023/07/19 06:12:42;;;;;;;5.78;2.72;;;24.10;56.80;;;;;;5045779;28;20039;-62
2023/07/19 06:15:08;;;;;;;4.75;2.60;;;24.10;56.60;;;;;;5039667;28;20641;-62
2023/07/19 06:17:33;;;;;;;4.05;2.97;;;24.20;56.50;;;;;;5045251;28;20025;-61
2023/07/19 06:20:00;;;;;;;5.63;3.05;;;24.40;55.60;;;;;;5043576;28;20036;-62
2023/07/19 06:22:25;;;;;;;5.03;2.90;;;24.50;55.60;;;;;;5046115;28;20021;-58
2023/07/19 06:24:51;;;;;;;5.45;2.55;;;24.70;54.90;;;;;;5023782;28;20354;-61
2023/07/19 06:27:17;;;;;;;3.65;2.25;;;24.80;54.80;;;;;;5042460;28;20025;-61
2023/07/19 06:29:43;;;;;;;5.10;2.45;;;24.90;54.80;;;;;;5040484;28;20475;-61
2023/07/19 06:32:09;;;;;;;6.18;3.10;;;25.00;54.40;;;;;;5041369;28;20017;-62
2023/07/19 06:34:35;;;;;;;5.20;2.88;;;25.20;54.50;;;;;;5043059;28;20033;-62
2023/07/19 06:37:01;;;;;;;7.95;3.03;;;25.20;53.10;;;;;;5040568;28;20120;-62
2023/07/19 06:39:28;;;;;;;4.97;2.65;;;25.40;53.20;;;;;;5045107;28;20017;-62
2023/07/19 06:41:54;;;;;;;4.50;2.50;;;25.40;53.10;;;;;;5044269;28;20395;-61
2023/07/19 06:44:20;;;;;;;5.45;2.67;;;25.50;52.80;;;;;;5045833;28;20101;-62
2023/07/19 06:46:45;;;;;;;5.45;2.90;;;25.60;52.10;;;;;;5044748;28;20017;-62
2023/07/19 06:49:11;;;;;;;6.68;2.92;;;25.70;52.00;;;;;;5036684;28;20033;-62
2023/07/19 06:51:37;;;;;;;4.13;2.83;;;25.80;51.80;;;;;;5040195;28;20173;-61
2023/07/19 06:54:02;;;;;;;3.08;2.35;;;25.80;50.70;;;;;;5022660;28;20077;-63
2023/07/19 06:56:28;;;;;;;4.40;2.53;;;25.90;50.90;;;;;;5037094;28;20452;-61
2023/07/19 06:58:54;;;;;;;4.55;2.65;;;26.00;51.00;;;;;;5053858;28;20083;-62
2023/07/19 07:01:20;;;;;;;5.05;2.63;;;26.10;51.00;;;;;;5047399;28;20372;-61
2023/07/19 07:03:45;;;;;;;3.63;2.35;;;26.20;50.40;;;;;;5042620;28;20032;-62
2023/07/19 07:06:11;;;;;;;5.43;2.65;;;26.30;50.50;;;;;;5046572;28;20483;-63
2023/07/19 07:08:37;;;;;;;9.45;2.58;;;26.30;50.20;;;;;;5041988;28;20057;-62
2023/07/19 07:11:04;;;;;;;6.82;2.35;;;26.40;50.30;;;;;;5038058;28;20499;-63
2023/07/19 07:13:30;;;;;;;6.03;2.67;;;26.50;49.70;;;;;;5035249;28;20025;-62
2023/07/19 07:15:58;;;;;;;4.47;2.80;;;26.60;49.60;;;;;;5043873;28;20029;-62
2023/07/19 07:18:23;;;;;;;7.65;2.72;;;26.70;49.70;;;;;;5038203;28;20021;-62
2023/07/19 07:20:52;;;;;;;5.15;2.70;;;26.80;49.70;;;;;;5043846;28;20036;-62
2023/07/19 07:23:18;;;;;;;8.15;2.67;;;26.90;49.40;;;;;;5040382;28;20032;-62
2023/07/19 07:25:43;;;;;;;4.32;2.47;;;26.90;49.10;;;;;;5034083;28;20033;-61
2023/07/19 07:28:09;;;;;;;3.78;2.70;;;27.00;48.90;;;;;;5045044;28;20033;-61
2023/07/19 07:30:37;;;;;;;4.10;2.63;;;27.10;48.90;;;;;;5040652;28;20049;-60
2023/07/19 07:33:03;;;;;;;4.68;2.83;;;27.10;48.70;;;;;;5037945;28;20080;-61
2023/07/19 07:35:29;;;;;;;9.88;3.17;;;27.20;48.10;;;;;;5038928;28;20021;-61
2023/07/19 07:37:55;;;;;;;5.50;2.90;;;27.20;48.50;;;;;;5034084;28;20025;-62
2023/07/19 07:40:21;;;;;;;6.85;2.58;;;27.20;47.10;;;;;;5040014;28;20057;-62
2023/07/19 07:42:47;;;;;;;6.30;2.70;;;27.30;47.40;;;;;;4992089;28;20418;-61
2023/07/19 07:45:13;;;;;;;4.57;2.53;;;27.30;47.10;;;;;;5006925;28;20437;-62
2023/07/19 07:47:39;;;;;;;4.30;2.28;;;27.30;47.10;;;;;;5045210;28;20095;-63
2023/07/19 07:50:08;;;;;;;5.82;2.40;;;27.40;47.50;;;;;;5045905;28;20021;-62
2023/07/19 07:52:34;;;;;;;6.22;2.60;;;27.40;47.00;;;;;;5039052;28;20035;-62
2023/07/19 07:55:00;;;;;;;3.38;2.35;;;27.50;46.60;;;;;;5042037;28;20101;-61
2023/07/19 07:57:26;;;;;;;5.05;2.75;;;27.60;46.10;;;;;;5041556;28;20423;-61
2023/07/19 07:59:51;;;;;;;5.88;2.78;;;27.60;45.70;;;;;;5041231;28;20044;-62
2023/07/19 08:02:17;;;;;;;3.33;2.20;;;27.60;45.70;;;;;;5040975;28;20115;-62
2023/07/19 08:04:43;;;;;;;3.67;2.22;;;27.60;46.20;;;;;;5033409;28;20361;-63
2023/07/19 08:07:08;;;;;;;6.15;2.53;;;27.70;46.30;;;;;;5041507;28;20064;-62
2023/07/19 08:09:34;;;;;;;6.03;2.75;;;27.70;45.90;;;;;;5042249;28;20036;-61
2023/07/19 08:12:00;;;;;;;6.43;2.75;;;27.80;46.30;;;;;;5042736;28;20033;-62
2023/07/19 08:14:25;;;;;;;4.78;2.58;;;27.90;45.50;;;;;;5040090;28;20045;-62
2023/07/19 08:16:54;;;;;;;4.78;2.67;;;27.90;45.90;;;;;;5037698;28;20111;-62
2023/07/19 08:19:19;;;;;;;5.45;2.65;;;27.90;45.20;;;;;;5026700;28;20032;-62
2023/07/19 08:21:45;;;;;;;4.45;2.65;;;28.00;45.20;;;;;;5040811;28;20101;-62
2023/07/19 08:24:11;;;;;;;4.45;2.60;;;28.00;45.30;;;;;;5045042;28;20100;-62
2023/07/19 08:26:38;;;;;;;7.05;2.67;;;28.00;44.80;;;;;;5032486;28;20143;-63
2023/07/19 08:29:03;;;;;;;4.65;2.50;;;28.10;44.90;;;;;;5037789;28;20064;-62
2023/07/19 08:31:29;;;;;;;5.68;2.60;;;28.00;44.50;;;;;;5037618;28;20060;-61
2023/07/19 08:33:55;;;;;;;5.55;2.80;;;28.00;44.50;;;;;;5043575;28;20072;-62
2023/07/19 08:36:21;;;;;;;4.88;3.08;;;28.00;44.50;;;;;;5016806;28;20055;-62
2023/07/19 08:38:47;;;;;;;3.60;2.35;;;28.00;44.70;;;;;;5040046;28;20025;-62
2023/07/19 08:41:18;;;;;;;3.25;2.50;;;27.90;44.90;;;;;;5041010;28;20032;-63
2023/07/19 08:43:44;;;;;;;6.50;2.78;;;27.90;44.70;;;;;;5019744;28;20036;-63
2023/07/19 08:46:16;;;;;;;5.85;2.40;;;27.90;44.80;;;;;;5045444;28;20032;-61
2023/07/19 08:48:47;;;;;;;5.90;2.55;;;28.00;45.40;;;;;;5049063;28;20048;-61
2023/07/19 08:51:14;;;;;;;5.70;2.70;;;28.10;44.80;;;;;;5036348;28;20111;-62
2023/07/19 08:53:40;;;;;;;9.40;3.08;;;28.10;44.20;;;;;;5043887;28;20442;-62
2023/07/19 08:56:06;;;;;;;5.97;2.65;;;28.20;44.30;;;;;;5041918;28;20046;-61
2023/07/19 08:58:37;;;;;;;9.13;2.72;;;28.10;44.40;;;;;;5045282;28;20040;-62
2023/07/19 09:01:03;;;;;;;9.32;2.75;;;28.20;43.80;;;;;;5045109;28;20033;-62
2023/07/19 09:03:29;;;;;;;8.02;2.88;;;28.20;43.70;;;;;;5040913;28;20032;-61
2023/07/19 09:05:54;;;;;;;2.90;2.05;;;28.30;43.10;;;;;;5042999;28;20147;-61
2023/07/19 09:08:20;;;;;;;3.70;2.30;;;28.30;43.20;;;;;;5040011;28;20098;-62
2023/07/19 09:10:46;;;;;;;5.85;2.17;;;28.30;43.10;;;;;;5047069;28;20047;-62
2023/07/19 09:13:20;;;;;;;11.73;3.22;;;28.40;43.70;;;;;;5042621;28;20099;-62
2023/07/19 09:15:48;;;;;;;10.38;2.78;;;28.40;43.00;;;;;;5036529;28;20024;-63
2023/07/19 09:18:14;;;;;;;3.90;2.33;;;28.50;42.70;;;;;;5040613;28;20082;-61
2023/07/19 09:20:40;;;;;;;5.63;2.47;;;28.60;42.20;;;;;;5040106;28;20029;-62
2023/07/19 09:23:06;;;;;;;4.80;2.15;;;28.60;41.60;;;;;;5043173;28;20021;-62
2023/07/19 09:26:05;;;;;;;7.22;2.45;;;28.70;41.70;;;;;;5047387;28;20036;-64
2023/07/19 09:28:34;;;;;;;4.63;1.90;;;28.80;41.40;;;;;;4963149;28;20093;-62
2023/07/19 09:31:03;;;;;;;6.72;2.53;;;28.90;41.40;;;;;;4964878;28;20105;-62
2023/07/19 09:33:28;;;;;;;6.22;2.22;;;28.90;40.70;;;;;;4964549;28;20342;-61
2023/07/19 09:35:55;;;;;;;6.45;2.45;;;28.90;40.80;;;;;;4940065;28;20406;-63
2023/07/19 09:38:33;;;;;;;3.95;2.20;;;29.00;40.50;;;;;;4962367;28;20046;-62
2023/07/19 09:41:01;;;;;;;5.32;2.20;;;29.00;39.90;;;;;;4958873;28;20450;-63
2023/07/19 09:43:27;;;;;;;6.13;2.05;;;29.10;40.60;;;;;;4957929;28;20039;-62
2023/07/19 09:45:55;;;;;;;3.70;2.13;;;29.20;40.30;;;;;;4959995;28;20039;-63
2023/07/19 09:48:21;;;;;;;4.55;2.30;;;29.20;39.70;;;;;;4959204;28;20057;-63
2023/07/19 09:50:51;;;;;;;7.15;2.00;;;29.20;40.10;;;;;;4961024;28;20098;-63
2023/07/19 09:53:22;;;;;;;4.13;2.17;;;29.20;40.50;;;;;;4956871;28;20110;-62
2023/07/19 09:55:50;;;;;;;4.25;1.95;;;29.30;39.60;;;;;;4960025;28;20046;-63
2023/07/19 09:58:18;;;;;;;5.32;2.00;;;29.40;39.70;;;;;;4964354;28;20562;-62
2023/07/19 10:00:45;;;;;;;12.82;2.00;;;29.40;39.10;;;;;;4960859;28;20030;-62
2023/07/19 10:03:17;;;;;;;5.97;1.48;;;29.50;39.00;;;;;;4966151;28;20042;-63
2023/07/19 10:05:43;;;;;;;5.28;1.63;;;29.60;38.30;;;;;;5035580;28;20092;-62
2023/07/19 10:08:10;;;;;;;2.67;1.40;;;29.60;37.60;;;;;;5046957;28;20017;-63
2023/07/19 10:10:40;;;;;;;3.67;1.50;;;29.60;35.90;;;;;;5046791;28;20025;-63
2023/07/19 10:13:06;;;;;;;2.17;1.30;;;29.70;35.90;;;;;;5042426;28;20461;-62
2023/07/19 10:15:33;;;;;;;3.22;1.52;;;29.70;35.90;;;;;;5040614;28;20028;-63
2023/07/19 10:17:59;;;;;;;2.85;1.73;;;29.80;36.10;;;;;;5045315;28;20035;-64
2023/07/19 10:20:33;;;;;;;3.90;1.90;;;29.80;35.10;;;;;;5041842;28;20546;-62
2023/07/19 10:23:05;;;;;;;5.65;1.90;;;29.90;34.50;;;;;;5016146;28;20029;-63
2023/07/19 10:25:51;;;;;;;3.10;1.60;;;29.90;34.80;;;;;;5025973;28;20132;-63
2023/07/19 10:28:29;;;;;;;5.35;1.65;;;29.90;34.60;;;;;;5040821;28;20056;-63
2023/07/19 10:31:03;;;;;;;3.78;1.77;;;30.00;34.10;;;;;;5038316;28;20108;-63
2023/07/19 10:33:31;;;;;;;3.03;1.70;;;30.00;34.20;;;;;;5043009;28;20369;-63
2023/07/19 10:36:06;;;;;;;4.70;1.73;;;30.00;34.10;;;;;;5046132;28;20371;-63
2023/07/19 10:38:32;;;;;;;8.35;2.05;;;29.90;33.80;;;;;;5041208;28;20033;-63
2023/07/19 10:40:59;;;;;;;4.72;1.90;;;29.90;34.20;;;;;;4955462;28;20025;-63
2023/07/19 10:43:27;;;;;;;5.35;2.10;;;30.00;34.50;;;;;;5042275;28;20029;-63
2023/07/19 10:45:53;;;;;;;4.07;2.22;;;30.00;33.60;;;;;;5041387;28;20040;-62
2023/07/19 10:48:29;;;;;;;3.13;1.73;;;30.10;34.20;;;;;;5038847;28;20040;-62
2023/07/19 10:50:59;;;;;;;4.22;1.90;;;30.20;35.20;;;;;;5036439;28;20516;-62
2023/07/19 10:53:25;;;;;;;2.78;1.70;;;30.20;34.00;;;;;;5034151;28;20057;-62
2023/07/19 10:55:55;;;;;;;3.22;1.98;;;30.30;34.00;;;;;;5038161;28;20389;-63
2023/07/19 10:58:27;;;;;;;6.68;2.30;;;30.30;34.30;;;;;;5035600;28;20032;-62
2023/07/19 11:00:54;;;;;;;4.45;1.88;;;30.40;34.00;;;;;;5034553;28;20052;-62
2023/07/19 11:03:23;;;;;;;4.18;1.98;;;30.40;34.30;;;;;;5036678;28;20028;-64
2023/07/19 11:05:50;;;;;;;2.95;1.88;;;30.30;34.00;;;;;;5038764;28;20106;-63
2023/07/19 11:08:27;;;;;;;4.70;1.90;;;30.30;34.50;;;;;;5040920;28;20116;-62
2023/07/19 11:10:54;;;;;;;3.75;2.25;;;30.30;34.20;;;;;;5038813;28;20091;-63
2023/07/19 11:13:23;;;;;;;6.50;1.73;;;30.20;34.60;;;;;;5043929;28;20048;-63
2023/07/19 11:15:50;;;;;;;3.65;2.10;;;30.20;34.80;;;;;;5037868;28;20100;-62
2023/07/19 11:18:28;;;;;;;8.90;1.75;;;30.20;33.80;;;;;;5041464;28;20107;-63
2023/07/19 11:20:55;;;;;;;5.72;2.20;;;30.10;34.10;;;;;;5020369;28;20052;-63
2023/07/19 11:23:21;;;;;;;4.82;2.05;;;30.10;34.30;;;;;;5047522;28;20036;-63
2023/07/19 11:25:47;;;;;;;2.88;1.80;;;30.10;34.80;;;;;;5044826;28;20036;-63
2023/07/19 11:28:13;;;;;;;5.00;2.35;;;30.10;35.00;;;;;;5044237;28;20399;-62
2023/07/19 11:30:40;;;;;;;3.67;1.88;;;30.20;35.00;;;;;;5042621;28;20021;-63
2023/07/19 11:33:09;;;;;;;5.43;1.85;;;30.30;34.90;;;;;;5042914;28;20044;-63
2023/07/19 11:35:35;;;;;;;5.80;2.08;;;30.40;34.90;;;;;;5048058;28;20032;-63
2023/07/19 11:38:02;;;;;;;3.90;1.98;;;30.50;34.70;;;;;;5042507;28;20025;-64
2023/07/19 11:40:27;;;;;;;6.00;2.10;;;30.60;34.90;;;;;;5041470;28;20075;-63
2023/07/19 11:42:57;;;;;;;3.88;1.95;;;30.80;35.30;;;;;;5046180;28;20037;-63
2023/07/19 11:45:27;;;;;;;2.88;1.80;;;31.00;35.60;;;;;;5039613;28;20017;-63
2023/07/19 11:48:01;;;;;;;3.45;1.83;;;31.20;34.80;;;;;;5044088;28;20037;-63
2023/07/19 11:50:27;;;;;;;4.72;1.63;;;31.40;35.10;;;;;;5042303;28;20075;-63
2023/07/19 11:52:59;;;;;;;3.75;1.98;;;31.60;34.70;;;;;;5046791;28;20041;-61
2023/07/19 11:55:25;;;;;;;3.85;1.80;;;31.90;34.10;;;;;;5041761;28;20053;-64
2023/07/19 11:57:52;;;;;;;2.92;1.98;;;32.10;33.10;;;;;;5041179;28;20056;-63
2023/07/19 12:00:21;;;;;;;4.68;2.08;;;32.20;33.00;;;;;;5041099;28;20495;-64
2023/07/19 12:02:49;;;;;;;3.33;1.88;;;32.20;32.20;;;;;;5041573;28;20021;-63
2023/07/19 12:05:20;;;;;;;7.82;1.77;;;32.20;31.70;;;;;;5044551;28;20571;-64
2023/07/19 12:07:47;;;;;;;2.45;1.48;;;32.20;30.60;;;;;;5037842;28;20033;-64
2023/07/19 12:10:12;;;;;;;2.83;1.75;;;32.20;32.00;;;;;;5040598;28;20048;-63
2023/07/19 12:12:39;;;;;;;3.42;1.75;;;32.10;30.60;;;;;;5039505;28;20100;-63
2023/07/19 12:15:09;;;;;;;2.90;1.50;;;32.10;31.10;;;;;;5045446;28;20140;-63
2023/07/19 12:17:36;;;;;;;4.25;1.70;;;32.10;30.40;;;;;;5036837;28;20422;-63
2023/07/19 12:20:03;;;;;;;2.72;1.75;;;32.00;31.50;;;;;;5037960;28;20345;-63
2023/07/19 12:22:29;;;;;;;6.90;1.70;;;32.00;31.70;;;;;;5026230;28;20025;-64
2023/07/19 12:24:56;;;;;;;3.58;1.73;;;31.90;31.90;;;;;;5042475;28;20123;-62
2023/07/19 12:27:22;;;;;;;6.72;1.70;;;32.00;31.80;;;;;;5041600;28;20057;-62
2023/07/19 12:29:47;;;;;;;3.88;2.10;;;32.10;31.20;;;;;;5041427;28;20063;-64
2023/07/19 12:32:14;;;;;;;2.90;1.95;;;32.20;31.30;;;;;;5040500;28;20032;-63
2023/07/19 12:34:40;;;;;;;2.55;1.58;;;32.40;31.80;;;;;;5043216;28;20468;-63
2023/07/19 12:37:07;;;;;;;3.75;2.05;;;32.50;30.50;;;;;;5045771;28;20112;-64
2023/07/19 12:39:32;;;;;;;4.25;1.60;;;32.70;30.00;;;;;;5042163;28;20045;-63
2023/07/19 12:41:58;;;;;;;4.00;1.65;;;32.80;29.70;;;;;;5041994;28;20052;-62
2023/07/19 12:44:24;;;;;;;4.25;1.60;;;32.90;29.10;;;;;;5040950;28;20020;-63